Time;durP1;ratioP1;P1;durP2;ratioP2;P2;SDS_P1;SDS_P2;PMS_P1;PMS_P2;Temp;Humidity;BMP_temperature;BMP_pressure;BME280_temperature;BME280_humidity;BME280_pressure;Samples;Min_cycle;Max_cycle;Signal;HPM_P1;HPM_P2
2023/10/18 00:02:19;;;;;;;;;10.67;9.67;;;;;11.85;100.00;100053.53;5088511;27;45747;-72
2023/10/18 00:04:45;;;;;;;;;12.00;11.00;;;;;11.82;100.00;100049.31;5089989;27;45537;-72
2023/10/18 00:07:13;;;;;;;;;11.33;11.33;;;;;11.83;100.00;100048.25;5086973;27;45713;-72
2023/10/18 00:09:45;;;;;;;;;12.67;10.33;;;;;11.83;100.00;100047.44;5080449;27;45755;-73
2023/10/18 00:12:16;;;;;;;;;11.33;10.00;;;;;11.79;100.00;100049.78;5092681;27;45887;-72
2023/10/18 00:14:45;;;;;;;;;10.33;9.33;;;;;11.73;100.00;100053.47;5084748;27;46126;-73
2023/10/18 00:17:12;;;;;;;;;9.33;8.00;;;;;11.69;100.00;100049.53;5085092;27;45861;-71
2023/10/18 00:19:39;;;;;;;;;7.00;3.67;;;;;11.70;100.00;100042.97;5071772;27;45432;-73
2023/10/18 00:22:07;;;;;;;;;13.33;11.00;;;;;11.70;100.00;100039.38;5081775;27;45933;-73
2023/10/18 00:24:33;;;;;;;;;10.33;10.33;;;;;11.67;100.00;100035.19;5092280;27;45761;-72
2023/10/18 00:26:58;;;;;;;;;10.67;10.67;;;;;11.67;100.00;100029.69;5084791;27;46706;-73
2023/10/18 00:29:24;;;;;;;;;11.00;10.00;;;;;11.71;100.00;100035.56;5077851;27;45457;-72
2023/10/18 00:31:49;;;;;;;;;9.00;8.00;;;;;11.65;100.00;100024.44;5082038;27;45595;-72
2023/10/18 00:34:15;;;;;;;;;14.33;10.33;;;;;11.62;100.00;100029.56;5078306;27;47332;-72
2023/10/18 00:36:40;;;;;;;;;12.00;11.67;;;;;11.63;100.00;100033.97;5072495;27;46629;-71
2023/10/18 00:39:20;;;;;;;;;11.67;9.33;;;;;11.60;100.00;100024.31;5081940;27;45356;-70
2023/10/18 00:41:46;;;;;;;;;13.33;10.67;;;;;11.54;100.00;100008.78;5083534;27;45829;-72
2023/10/18 00:44:11;;;;;;;;;12.67;10.00;;;;;11.53;100.00;99998.03;4998620;22;46770;-81
2023/10/18 00:46:39;;;;;;;;;9.67;9.67;;;;;11.56;100.00;100009.38;4950888;28;45979;-83
2023/10/18 00:49:13;;;;;;;;;9.33;9.33;;;;;11.46;100.00;100004.44;4947872;28;45774;-80
2023/10/18 00:51:46;;;;;;;;;15.67;13.67;;;;;11.53;100.00;99995.28;4943325;28;45964;-81
2023/10/18 00:54:12;;;;;;;;;13.00;12.00;;;;;11.56;100.00;100000.31;4938969;28;45985;-80
2023/10/18 00:56:44;;;;;;;;;11.33;11.33;;;;;11.40;100.00;99974.34;4956850;28;46677;-81
2023/10/18 00:59:31;;;;;;;;;13.67;10.67;;;;;11.51;100.00;99986.41;4968822;28;45376;-81
2023/10/18 01:02:16;;;;;;;;;12.00;11.00;;;;;11.49;100.00;99989.41;4942878;28;45385;-81
2023/10/18 01:04:42;;;;;;;;;10.67;10.00;;;;;11.39;100.00;99969.91;4950826;28;45757;-78
2023/10/18 01:07:14;;;;;;;;;13.33;10.00;;;;;11.47;100.00;99981.41;4952785;28;45700;-81
2023/10/18 01:09:45;;;;;;;;;13.33;12.67;;;;;11.36;100.00;99963.00;4953941;28;46015;-82
2023/10/18 01:12:11;;;;;;;;;10.33;8.67;;;;;11.33;100.00;99951.63;4955025;28;44781;-81
2023/10/18 01:14:36;;;;;;;;;10.00;10.00;;;;;11.45;100.00;99967.06;4953309;28;45741;-81
2023/10/18 01:17:04;;;;;;;;;8.00;8.00;;;;;11.45;100.00;99960.72;4955591;28;45989;-81
2023/10/18 01:19:30;;;;;;;;;13.67;13.67;;;;;11.35;100.00;99939.34;4951240;28;46108;-81
2023/10/18 01:21:56;;;;;;;;;11.67;7.67;;;;;11.48;100.00;99949.28;4954376;28;45501;-80
2023/10/18 01:24:22;;;;;;;;;10.33;10.33;;;;;11.43;100.00;99947.22;4952792;28;45487;-80
2023/10/18 01:26:47;;;;;;;;;12.00;11.67;;;;;11.39;100.00;99931.47;4965061;28;45450;-81
2023/10/18 01:29:13;;;;;;;;;8.67;7.33;;;;;11.45;100.00;99942.38;4959530;28;45766;-79
2023/10/18 01:31:45;;;;;;;;;12.00;10.00;;;;;11.44;100.00;99945.34;4959115;28;45977;-81
2023/10/18 01:34:11;;;;;;;;;7.33;7.33;;;;;11.40;100.00;99919.44;4953009;28;45851;-80
2023/10/18 01:36:40;;;;;;;;;12.00;12.00;;;;;11.26;100.00;99908.66;4940590;28;45847;-81
2023/10/18 01:39:18;;;;;;;;;10.67;10.00;;;;;11.42;100.00;99926.38;4959924;28;45474;-81
2023/10/18 01:41:46;;;;;;;;;12.67;11.67;;;;;11.28;100.00;99900.19;4952710;28;45527;-80
2023/10/18 01:44:12;;;;;;;;;11.00;9.67;;;;;11.29;100.00;99912.84;4955887;28;45448;-80
2023/10/18 01:46:45;;;;;;;;;15.33;11.00;;;;;11.37;100.00;99922.63;4950161;28;47269;-80
2023/10/18 01:49:13;;;;;;;;;10.00;10.00;;;;;11.38;100.00;99933.38;4954839;28;45697;-80
2023/10/18 01:51:42;;;;;;;;;13.00;10.00;;;;;11.30;100.00;99912.59;4960152;28;45959;-81
2023/10/18 01:54:12;;;;;;;;;11.00;10.00;;;;;11.35;100.00;99909.16;4958432;28;46658;-81
2023/10/18 01:56:38;;;;;;;;;8.33;8.33;;;;;11.26;100.00;99889.44;4968908;28;47393;-81
2023/10/18 01:59:14;;;;;;;;;10.33;10.00;;;;;11.26;100.00;99891.34;4957073;28;45650;-81
2023/10/18 02:01:40;;;;;;;;;11.33;10.00;;;;;11.31;100.00;99900.53;4951833;28;45770;-81
2023/10/18 02:04:11;;;;;;;;;11.00;8.67;;;;;11.31;100.00;99891.47;4949417;28;46068;-81
2023/10/18 02:06:37;;;;;;;;;10.00;9.00;;;;;11.27;100.00;99893.00;4954190;28;45700;-81
2023/10/18 02:09:09;;;;;;;;;8.33;7.00;;;;;11.34;100.00;99888.25;4958716;28;45650;-81
2023/10/18 02:11:35;;;;;;;;;12.67;9.67;;;;;11.29;100.00;99883.47;4950545;28;45901;-81
2023/10/18 02:14:01;;;;;;;;;11.50;11.00;;;;;11.31;100.00;99880.50;4959291;28;45552;-80
2023/10/18 02:16:28;;;;;;;;;10.33;10.33;;;;;11.26;100.00;99875.72;4950321;28;46335;-81
2023/10/18 02:18:54;;;;;;;;;8.67;7.00;;;;;11.32;100.00;99884.91;4957172;28;45454;-81
2023/10/18 02:21:21;;;;;;;;;13.00;11.67;;;;;11.33;100.00;99880.25;4959196;28;45568;-80
2023/10/18 02:23:50;;;;;;;;;12.00;11.00;;;;;11.30;100.00;99865.94;4957570;28;46271;-80
2023/10/18 02:26:30;;;;;;;;;12.33;8.67;;;;;11.23;100.00;99847.91;4967958;28;45479;-81
2023/10/18 02:28:56;;;;;;;;;10.33;8.67;;;;;11.25;100.00;99845.75;4957752;28;46046;-81
2023/10/18 02:31:22;;;;;;;;;8.67;7.67;;;;;11.26;100.00;99848.25;4960492;28;45570;-81
2023/10/18 02:33:48;;;;;;;;;10.00;8.33;;;;;11.24;100.00;99835.84;4953868;28;45669;-83
2023/10/18 02:36:21;;;;;;;;;9.33;8.33;;;;;11.24;100.00;99844.94;4953383;28;45454;-82
2023/10/18 02:38:49;;;;;;;;;9.00;9.00;;;;;11.22;100.00;99836.06;4962278;28;45770;-80
2023/10/18 02:41:21;;;;;;;;;9.67;9.67;;;;;11.19;100.00;99827.47;4955616;28;45728;-82
2023/10/18 02:43:49;;;;;;;;;11.00;10.00;;;;;11.06;100.00;99799.19;4957615;28;46199;-81
2023/10/18 02:46:16;;;;;;;;;10.67;9.67;;;;;11.16;100.00;99816.97;4956198;28;45915;-81
2023/10/18 02:48:44;;;;;;;;;13.67;12.33;;;;;11.12;100.00;99800.13;4970892;28;45427;-81
2023/10/18 02:51:13;;;;;;;;;12.00;11.33;;;;;11.24;100.00;99820.22;4956303;28;45517;-80
2023/10/18 02:53:42;;;;;;;;;10.00;9.33;;;;;11.24;100.00;99813.88;4954857;28;45634;-81
2023/10/18 02:56:17;;;;;;;;;10.00;8.00;;;;;11.30;100.00;99813.78;4964236;28;45378;-82
2023/10/18 02:58:46;;;;;;;;;11.00;11.00;;;;;11.35;100.00;99820.44;4967904;28;45443;-80
2023/10/18 03:01:14;;;;;;;;;10.33;8.33;;;;;11.32;100.00;99810.81;4943202;28;45794;-81
2023/10/18 03:03:46;;;;;;;;;12.33;12.00;;;;;11.26;100.00;99798.03;4958531;28;45632;-81
2023/10/18 03:06:16;;;;;;;;;11.33;10.00;;;;;11.35;100.00;99801.22;4949012;28;45842;-82
2023/10/18 03:08:48;;;;;;;;;8.67;8.00;;;;;11.21;100.00;99773.19;4954296;28;45788;-81
2023/10/18 03:11:13;;;;;;;;;9.00;8.00;;;;;11.34;100.00;99794.09;4968631;28;45677;-82
2023/10/18 03:13:39;;;;;;;;;10.67;9.00;;;;;11.36;100.00;99797.44;4963035;28;45762;-81
2023/10/18 03:16:06;;;;;;;;;11.00;10.00;;;;;11.38;100.00;99782.41;4958186;28;45510;-82
2023/10/18 03:18:37;;;;;;;;;13.33;10.33;;;;;11.26;100.00;99754.13;4958948;28;45787;-82
2023/10/18 03:21:08;;;;;;;;;12.33;11.33;;;;;11.33;100.00;99756.72;4954978;28;45954;-81
2023/10/18 03:23:44;;;;;;;;;12.33;11.33;;;;;11.30;100.00;99755.28;4949323;28;46129;-82
2023/10/18 03:26:11;;;;;;;;;11.33;10.00;;;;;11.33;100.00;99757.56;4953185;28;46185;-81
2023/10/18 03:28:40;;;;;;;;;12.00;10.33;;;;;11.25;100.00;99753.25;4957292;28;45816;-80
2023/10/18 03:31:21;;;;;;;;;13.00;11.33;;;;;11.26;100.00;99765.09;4971544;28;45533;-81
2023/10/18 03:33:59;;;;;;;;;10.00;10.00;;;;;11.40;100.00;99782.16;4958508;28;46037;-82
2023/10/18 03:36:26;;;;;;;;;12.00;10.00;;;;;11.45;100.00;99777.63;4965356;28;46054;-81
2023/10/18 03:38:54;;;;;;;;;11.00;11.00;;;;;11.47;100.00;99775.47;4956028;28;45765;-82
2023/10/18 03:41:25;;;;;;;;;8.33;8.33;;;;;11.36;100.00;99773.56;4968873;28;45525;-80
2023/10/18 03:43:58;;;;;;;;;11.00;8.67;;;;;11.37;100.00;99750.53;4962388;28;45420;-82
2023/10/18 03:46:38;;;;;;;;;9.33;9.33;;;;;11.55;100.00;99779.75;4968479;28;45807;-81
2023/10/18 03:49:10;;;;;;;;;12.00;12.00;;;;;11.54;100.00;99763.53;4962717;28;46326;-80
2023/10/18 03:51:39;;;;;;;;;12.00;11.00;;;;;11.62;100.00;99760.44;4963025;28;45688;-80
2023/10/18 03:54:05;;;;;;;;;11.00;11.00;;;;;11.61;100.00;99753.25;4955087;28;45871;-80
2023/10/18 03:56:36;;;;;;;;;11.33;11.00;;;;;11.74;100.00;99769.50;4960781;28;45880;-81
2023/10/18 03:59:40;;;;;;;;;10.33;9.33;;;;;11.81;100.00;99772.09;4964240;28;45447;-80
2023/10/18 04:04:34;;;;;;;;;11.33;9.67;;;;;11.82;100.00;99747.13;4960127;28;45769;-81
2023/10/18 04:07:08;;;;;;;;;14.33;11.00;;;;;11.87;100.00;99759.31;4954754;28;46678;-81
2023/10/18 04:09:33;;;;;;;;;13.00;11.67;;;;;11.91;100.00;99746.75;4956089;28;45789;-83
2023/10/18 04:12:00;;;;;;;;;14.00;14.00;;;;;11.74;100.00;99733.78;4976216;28;45498;-82
2023/10/18 04:14:25;;;;;;;;;14.33;11.67;;;;;11.67;100.00;99738.56;4966517;28;45504;-81
2023/10/18 04:16:57;;;;;;;;;8.67;7.33;;;;;11.55;100.00;99735.81;4954916;28;45914;-81
2023/10/18 04:19:22;;;;;;;;;10.67;9.67;;;;;11.52;100.00;99738.22;4949379;28;45847;-82
2023/10/18 04:21:52;;;;;;;;;10.00;10.00;;;;;11.36;100.00;99713.19;4956335;28;45443;-80
2023/10/18 04:24:20;;;;;;;;;11.33;10.00;;;;;11.25;100.00;99703.03;4961130;28;45863;-82
2023/10/18 04:26:47;;;;;;;;;14.00;14.00;;;;;11.31;100.00;99724.03;4960280;28;47278;-81
2023/10/18 04:29:22;;;;;;;;;13.00;11.33;;;;;11.41;100.00;99735.25;4950368;28;45327;-81
2023/10/18 04:31:49;;;;;;;;;17.67;14.67;;;;;11.35;100.00;99719.75;4955480;28;45912;-81
2023/10/18 04:34:18;;;;;;;;;16.33;13.00;;;;;11.47;100.00;99738.94;4954256;28;45456;-81
2023/10/18 04:36:44;;;;;;;;;11.67;10.67;;;;;11.51;100.00;99718.16;4953660;28;47228;-81
2023/10/18 04:39:11;;;;;;;;;10.67;7.67;;;;;11.33;100.00;99688.09;4947867;28;45393;-80
2023/10/18 04:41:37;;;;;;;;;14.00;12.67;;;;;11.46;100.00;99702.41;4955935;28;45429;-81
2023/10/18 04:46:38;;;;;;;;;13.67;13.00;;;;;11.33;100.00;99685.34;4958349;28;47065;-82
2023/10/18 04:49:50;;;;;;;;;11.00;10.00;;;;;11.34;100.00;99678.81;4957433;28;46372;-82
2023/10/18 04:51:54;;;;;;;;;9.67;9.33;;;;;11.25;100.00;99683.81;4949866;28;45563;-81
2023/10/18 04:54:30;;;;;;;;;14.33;14.00;;;;;11.21;100.00;99679.88;4954444;28;45583;-82
2023/10/18 04:56:58;;;;;;;;;12.00;11.67;;;;;11.17;100.00;99673.19;4957791;28;47848;-81
2023/10/18 04:59:34;;;;;;;;;16.33;12.33;;;;;11.16;100.00;99666.06;4951900;28;45772;-81
2023/10/18 05:01:59;;;;;;;;;13.67;10.00;;;;;11.22;100.00;99667.84;4955396;28;45652;-81
2023/10/18 05:04:32;;;;;;;;;12.00;12.00;;;;;11.26;100.00;99663.53;4952776;28;45562;-82
2023/10/18 05:07:00;;;;;;;;;11.67;11.67;;;;;11.31;100.00;99648.00;4953472;28;47459;-80
2023/10/18 05:09:32;;;;;;;;;11.00;10.67;;;;;11.37;100.00;99657.19;4956019;28;45752;-79
2023/10/18 05:11:59;;;;;;;;;17.00;15.00;;;;;11.43;100.00;99664.44;4955748;28;44910;-83
2023/10/18 05:14:42;;;;;;;;;11.00;11.00;;;;;11.50;100.00;99650.59;4953176;28;45885;-81
2023/10/18 05:17:17;;;;;;;;;15.00;12.67;;;;;11.57;100.00;99645.81;4951611;28;46675;-81
2023/10/18 05:19:49;;;;;;;;;14.67;12.33;;;;;11.65;100.00;99647.34;4968485;28;46313;-87
2023/10/18 05:22:24;;;;;;;;;13.67;12.67;;;;;11.55;100.00;99620.50;4958348;28;45768;-81
2023/10/18 05:25:15;;;;;;;;;15.00;14.67;;;;;11.78;100.00;99651.72;4950831;28;45752;-80
2023/10/18 05:27:59;;;;;;;;;12.00;12.00;;;;;11.81;100.00;99640.22;4968273;28;46304;-82
2023/10/18 05:31:03;;;;;;;;;12.00;11.00;;;;;11.84;100.00;99628.75;4976275;28;45445;-81
2023/10/18 05:33:15;;;;;;;;;14.00;11.00;;;;;11.94;100.00;99641.91;4968554;28;45454;-80
2023/10/18 05:35:43;;;;;;;;;12.00;11.00;;;;;11.94;100.00;99639.97;4970922;28;46980;-81
2023/10/18 05:43:03;;;;;;;;;13.67;12.33;;;;;12.07;100.00;99643.53;4953294;28;45802;-82
2023/10/18 05:45:33;;;;;;;;;14.00;13.00;;;;;12.05;100.00;99624.53;4952884;28;45914;-82
2023/10/18 05:48:03;;;;;;;;;14.00;13.33;;;;;12.14;100.00;99634.06;4950179;28;47595;-81
2023/10/18 05:50:34;;;;;;;;;13.33;11.33;;;;;12.05;100.00;99607.19;4949690;28;45874;-81
2023/10/18 05:53:06;;;;;;;;;13.67;11.67;;;;;12.13;100.00;99621.38;4955700;28;45547;-82
2023/10/18 05:55:32;;;;;;;;;13.67;13.67;;;;;12.15;100.00;99621.94;4952477;28;45949;-80
2023/10/18 05:57:59;;;;;;;;;13.00;12.67;;;;;12.28;100.00;99625.50;4950935;28;48068;-81
2023/10/18 06:00:25;;;;;;;;;14.33;13.00;;;;;12.45;100.00;99640.06;4951711;28;45801;-80
2023/10/18 06:02:52;;;;;;;;;9.33;9.33;;;;;12.41;100.00;99619.69;4953312;28;45786;-78
2023/10/18 06:05:33;;;;;;;;;18.00;15.00;;;;;12.47;100.00;99632.44;4948480;28;45566;-83
2023/10/18 06:08:02;;;;;;;;;12.33;9.00;;;;;12.40;100.00;99629.00;4947820;28;45827;-81
2023/10/18 06:10:27;;;;;;;;;13.67;13.67;;;;;12.51;100.00;99625.34;4947536;28;45828;-81
2023/10/18 06:13:05;;;;;;;;;14.33;13.33;;;;;12.44;100.00;99621.06;4946775;28;46875;-82
2023/10/18 06:15:34;;;;;;;;;13.67;13.00;;;;;12.51;100.00;99610.75;4945940;28;47452;-81
2023/10/18 06:18:05;;;;;;;;;12.67;12.33;;;;;12.65;100.00;99630.50;4944727;28;47657;-81
2023/10/18 06:20:34;;;;;;;;;13.67;13.67;;;;;12.64;100.00;99637.94;4946209;28;45936;-80
2023/10/18 06:24:08;;;;;;;;;15.33;12.00;;;;;12.60;100.00;99631.25;4948296;28;45618;-81
2023/10/18 06:25:57;;;;;;;;;13.67;10.67;;;;;12.69;100.00;99637.16;4940213;28;45617;-81
2023/10/18 06:28:26;;;;;;;;;15.33;11.33;;;;;12.66;100.00;99618.41;4944517;28;45675;-81
2023/10/18 06:30:53;;;;;;;;;15.67;13.33;;;;;12.84;100.00;99631.06;4962307;28;46118;-81
2023/10/18 06:33:19;;;;;;;;;10.67;10.33;;;;;12.87;100.00;99614.06;4953546;28;46282;-80
2023/10/18 06:35:52;;;;;;;;;19.00;14.67;;;;;12.88;100.00;99605.56;4948907;28;46613;-79
2023/10/18 06:38:24;;;;;;;;;13.67;13.67;;;;;12.84;100.00;99609.06;4946823;28;46031;-80
2023/10/18 06:41:02;;;;;;;;;7.67;6.67;;;;;12.83;100.00;99590.88;4962587;28;45667;-81
2023/10/18 06:43:28;;;;;;;;;10.00;9.67;;;;;12.81;100.00;99585.63;4949239;28;45452;-79
2023/10/18 06:45:53;;;;;;;;;16.33;15.00;;;;;12.78;100.00;99588.88;4947848;28;45908;-80
2023/10/18 06:48:26;;;;;;;;;14.00;10.67;;;;;12.79;100.00;99574.06;4945192;28;46836;-84
2023/10/18 06:50:53;;;;;;;;;11.00;10.00;;;;;12.99;100.00;99589.19;4963322;28;45585;-81
2023/10/18 06:53:20;;;;;;;;;9.00;9.00;;;;;12.92;100.00;99572.03;4947076;28;45554;-82
2023/10/18 06:55:56;;;;;;;;;10.00;10.00;;;;;13.03;100.00;99580.19;4952621;28;45515;-80
2023/10/18 07:00:53;;;;;;;;;14.00;14.00;;;;;13.09;100.00;99567.31;4949709;28;46379;-80
2023/10/18 07:03:25;;;;;;;;;14.33;11.33;;;;;13.26;100.00;99581.03;4959169;28;46011;-81
2023/10/18 07:05:54;;;;;;;;;14.33;13.00;;;;;13.28;100.00;99570.59;4953208;28;46110;-83
2023/10/18 07:08:33;;;;;;;;;14.33;14.00;;;;;13.32;100.00;99546.13;4954729;28;45740;-84
2023/10/18 07:11:09;;;;;;;;;12.00;11.67;;;;;13.43;100.00;99542.47;4950970;28;45914;-84
2023/10/18 07:13:46;;;;;;;;;16.00;14.67;;;;;13.06;100.00;99471.50;4955873;28;45504;-83
2023/10/18 07:16:18;;;;;;;;;15.00;14.00;;;;;13.01;100.00;99463.19;4954498;28;45570;-83
2023/10/18 07:18:44;;;;;;;;;17.33;14.67;;;;;13.39;100.00;99520.09;4954621;28;46824;-84
2023/10/18 07:21:11;;;;;;;;;15.00;12.67;;;;;13.13;100.00;99461.13;4955185;28;45747;-84
2023/10/18 07:23:40;;;;;;;;;16.33;13.33;;;;;13.41;100.00;99514.31;4951180;28;45580;-82
2023/10/18 07:26:07;;;;;;;;;17.00;15.33;;;;;13.50;100.00;99523.81;4948832;28;45891;-80
2023/10/18 07:28:35;;;;;;;;;18.00;15.67;;;;;13.72;100.00;99550.47;4949618;28;47186;-80
2023/10/18 07:31:08;;;;;;;;;11.67;10.33;;;;;13.70;100.00;99531.47;4951513;28;46620;-82
2023/10/18 07:33:36;;;;;;;;;15.00;13.00;;;;;13.74;100.00;99523.50;4952059;28;45538;-83
2023/10/18 07:36:04;;;;;;;;;17.33;17.33;;;;;13.98;100.00;99536.94;4951950;28;45660;-82
2023/10/18 07:38:30;;;;;;;;;18.67;15.67;;;;;14.04;100.00;99538.66;4949130;28;46088;-81
2023/10/18 07:40:56;;;;;;;;;18.67;15.00;;;;;14.19;100.00;99555.38;4953492;28;45579;-82
2023/10/18 07:43:25;;;;;;;;;12.33;12.00;;;;;14.39;100.00;99551.09;4950882;28;45894;-83
2023/10/18 07:45:54;;;;;;;;;13.67;13.67;;;;;14.51;100.00;99548.16;4950989;28;46381;-83
2023/10/18 07:48:19;;;;;;;;;13.00;11.00;;;;;14.63;100.00;99546.88;4948656;28;46182;-81
2023/10/18 07:50:54;;;;;;;;;12.00;12.00;;;;;14.79;100.00;99545.06;4948363;28;45497;-80
2023/10/18 07:53:22;;;;;;;;;15.33;12.33;;;;;14.86;100.00;99539.31;4952203;28;45569;-79
2023/10/18 07:55:57;;;;;;;;;12.00;12.00;;;;;14.85;100.00;99532.16;4956154;28;46843;-81
2023/10/18 07:58:23;;;;;;;;;13.33;11.33;;;;;14.92;100.00;99516.16;4958816;28;45881;-83
2023/10/18 08:03:31;;;;;;;;;13.67;10.67;;;;;15.09;100.00;99493.03;4950583;28;46417;-82
2023/10/18 08:05:57;;;;;;;;;13.33;10.00;;;;;15.31;100.00;99504.75;4950975;28;46029;-83
2023/10/18 08:08:26;;;;;;;;;22.00;14.33;;;;;15.48;100.00;99492.63;4968175;28;48977;-82
2023/10/18 08:10:55;;;;;;;;;13.00;12.33;;;;;15.49;100.00;99461.13;4951811;28;45732;-80
2023/10/18 08:13:28;;;;;;;;;13.67;11.33;;;;;15.82;100.00;99476.41;4949447;28;46538;-79
2023/10/18 08:15:54;;;;;;;;;15.33;14.00;;;;;15.79;100.00;99471.41;4949769;28;45531;-82
2023/10/18 08:18:39;;;;;;;;;12.67;10.33;;;;;15.91;100.00;99479.44;4951467;28;46683;-80
2023/10/18 08:21:08;;;;;;;;;11.00;10.33;;;;;16.07;100.00;99474.75;4949287;28;45884;-81
2023/10/18 08:23:34;;;;;;;;;11.00;11.00;;;;;16.14;100.00;99475.31;4947913;28;46437;-80
2023/10/18 08:26:04;;;;;;;;;12.33;10.67;;;;;16.08;100.00;99454.31;4949013;28;45574;-82
2023/10/18 08:28:40;;;;;;;;;12.00;10.33;;;;;16.15;100.00;99457.63;4946954;28;47269;-81
2023/10/18 08:31:26;;;;;;;;;14.33;11.67;;;;;16.39;100.00;99471.69;4948077;28;45992;-81
2023/10/18 08:33:54;;;;;;;;;12.00;9.33;;;;;16.42;100.00;99451.75;4947588;28;45715;-80
2023/10/18 08:36:29;;;;;;;;;12.00;10.00;;;;;16.55;100.00;99466.13;4949168;28;46034;-80
2023/10/18 08:38:56;;;;;;;;;11.67;7.67;;;;;16.69;100.00;99464.44;4949614;28;48292;-82
2023/10/18 08:41:31;;;;;;;;;11.67;10.67;;;;;16.83;100.00;99452.78;4953898;28;45799;-83
2023/10/18 08:43:57;;;;;;;;;14.00;11.33;;;;;16.90;100.00;99458.84;4949546;28;45787;-81
2023/10/18 08:46:27;;;;;;;;;11.67;11.33;;;;;16.80;100.00;99433.97;4953028;28;46983;-82
2023/10/18 08:48:56;;;;;;;;;11.33;9.33;;;;;16.88;100.00;99436.16;4957639;28;48453;-80
2023/10/18 08:51:26;;;;;;;;;9.67;9.67;;;;;17.06;100.00;99445.78;4948877;28;45553;-80
2023/10/18 08:53:54;;;;;;;;;10.33;10.33;;;;;17.07;100.00;99436.34;4951553;28;45597;-81
2023/10/18 08:56:29;;;;;;;;;15.33;11.00;;;;;17.28;100.00;99434.31;4949825;28;45785;-83
2023/10/18 08:58:56;;;;;;;;;9.33;9.33;;;;;17.45;100.00;99434.75;4952773;28;45553;-82
2023/10/18 09:01:23;;;;;;;;;17.33;16.67;;;;;17.57;100.00;99436.34;4950992;28;45857;-84
2023/10/18 09:03:49;;;;;;;;;12.67;10.67;;;;;17.85;100.00;99437.50;4947339;28;45879;-83
2023/10/18 09:06:30;;;;;;;;;11.33;8.67;;;;;18.02;100.00;99439.88;4948978;28;46395;-82
2023/10/18 09:09:10;;;;;;;;;12.67;12.67;;;;;18.15;100.00;99433.66;4949406;28;45866;-84
2023/10/18 09:11:47;;;;;;;;;14.33;12.00;;;;;18.28;100.00;99423.03;4951502;28;45981;-82
2023/10/18 09:14:15;;;;;;;;;8.67;8.67;;;;;18.40;100.00;99417.91;4949941;28;45871;-84
2023/10/18 09:16:42;;;;;;;;;10.67;9.67;;;;;18.43;100.00;99414.53;4949189;28;45804;-82
2023/10/18 09:19:11;;;;;;;;;11.00;10.00;;;;;18.69;100.00;99417.84;4963278;28;47204;-81
2023/10/18 09:21:44;;;;;;;;;10.67;9.33;;;;;18.84;100.00;99411.25;4948266;28;46358;-80
2023/10/18 09:24:11;;;;;;;;;10.00;8.67;;;;;18.87;100.00;99405.16;4945789;28;45707;-81
2023/10/18 09:26:42;;;;;;;;;10.00;10.00;;;;;18.94;100.00;99413.13;4951172;28;46120;-81
2023/10/18 09:29:09;;;;;;;;;9.33;8.00;;;;;19.07;100.00;99417.13;4947877;28;45873;-82
2023/10/18 09:31:36;;;;;;;;;10.00;9.00;;;;;19.28;100.00;99405.72;4946436;28;46526;-83
2023/10/18 09:34:08;;;;;;;;;10.67;8.00;;;;;19.27;100.00;99401.31;4965540;28;45858;-81
2023/10/18 09:36:38;;;;;;;;;13.00;11.00;;;;;19.30;100.00;99412.66;4948205;28;45880;-79
2023/10/18 09:39:11;;;;;;;;;9.67;8.00;;;;;19.41;100.00;99407.75;4949400;28;48853;-82
2023/10/18 09:41:39;;;;;;;;;10.00;9.33;;;;;19.38;100.00;99402.81;4946169;28;46124;-80
2023/10/18 09:44:06;;;;;;;;;9.67;8.00;;;;;19.50;100.00;99394.81;4945403;28;45741;-84
2023/10/18 09:46:33;;;;;;;;;12.33;10.67;;;;;19.55;100.00;99402.25;4950602;28;46097;-82
2023/10/18 09:48:59;;;;;;;;;4.00;4.00;;;;;19.62;100.00;99388.78;4952833;28;46142;-83
2023/10/18 09:51:26;;;;;;;;;6.67;5.00;;;;;19.54;100.00;99372.81;4949041;28;45758;-82
2023/10/18 09:53:56;;;;;;;;;8.67;6.67;;;;;19.58;100.00;99383.03;4949381;28;45793;-83
2023/10/18 09:56:35;;;;;;;;;10.67;9.67;;;;;19.46;100.00;99370.69;4948360;28;46076;-82
2023/10/18 09:59:08;;;;;;;;;7.33;6.00;;;;;19.38;100.00;99361.09;4948971;28;46506;-85
2023/10/18 10:04:14;;;;;;;;;9.00;9.00;;;;;19.08;100.00;99352.09;4951166;28;45649;-84
2023/10/18 10:06:45;;;;;;;;;9.67;8.00;;;;;19.20;100.00;99357.19;4949271;28;46159;-83
2023/10/18 10:09:13;;;;;;;;;8.33;7.00;;;;;18.93;100.00;99350.34;4949297;28;47441;-83
2023/10/18 10:11:46;;;;;;;;;9.33;8.67;;;;;18.86;100.00;99333.22;4952271;28;45575;-85
2023/10/18 10:14:16;;;;;;;;;7.33;6.67;;;;;18.73;100.00;99331.16;4957109;28;45541;-85
2023/10/18 10:17:08;;;;;;;;;10.33;8.67;;;;;18.71;100.00;99339.78;4951958;28;45967;-83
2023/10/18 10:19:42;;;;;;;;;9.67;5.00;;;;;18.46;100.00;99333.44;4950093;28;47144;-87
2023/10/18 10:22:14;;;;;;;;;9.33;8.00;;;;;18.49;100.00;99355.06;4953598;28;45585;-85
2023/10/18 10:25:01;;;;;;;;;5.67;5.67;;;;;18.17;100.00;99287.16;4950294;28;46420;-85
2023/10/18 10:27:27;;;;;;;;;11.33;9.33;;;;;18.47;100.00;99335.09;4958356;28;45525;-85
2023/10/18 10:30:03;;;;;;;;;11.00;5.33;;;;;18.46;100.00;99322.34;4949680;28;45824;-85
2023/10/18 10:32:30;;;;;;;;;7.67;7.67;;;;;18.36;100.00;99305.81;4953894;28;45807;-87
2023/10/18 10:35:15;;;;;;;;;10.33;9.67;;;;;18.67;100.00;99319.31;4953000;28;45613;-86
2023/10/18 10:44:30;;;;;;;;;9.67;9.67;;;;;19.33;100.00;99305.59;4960492;28;45498;-88
2023/10/18 10:47:29;;;;;;;;;11.00;10.33;;;;;19.53;100.00;99316.34;4948251;28;45443;-85
2023/10/18 10:49:59;;;;;;;;;11.67;10.67;;;;;19.48;100.00;99283.09;4959593;28;45455;-85
2023/10/18 10:52:30;;;;;;;;;10.33;8.33;;;;;19.65;100.00;99296.41;4965053;28;48018;-86
2023/10/18 10:55:25;;;;;;;;;10.00;8.00;;;;;19.63;100.00;99290.34;4956600;28;45585;-85
2023/10/18 10:57:52;;;;;;;;;9.33;9.33;;;;;19.60;100.00;99285.38;4953018;28;45265;-86
2023/10/18 11:00:49;;;;;;;;;11.33;9.33;;;;;19.63;100.00;99283.97;4954942;28;46203;-88
2023/10/18 11:03:27;;;;;;;;;6.67;6.67;;;;;19.51;100.00;99268.56;4960804;28;46783;-84
2023/10/18 11:06:10;;;;;;;;;10.00;10.00;;;;;19.47;100.00;99289.75;4960391;28;45560;-84
2023/10/18 11:08:39;;;;;;;;;10.67;9.33;;;;;19.20;100.00;99238.50;4953925;28;45345;-85
2023/10/18 11:11:06;;;;;;;;;12.67;9.00;;;;;19.34;100.00;99271.09;4962475;28;45940;-82
2023/10/18 11:20:48;;;;;;;;;8.33;8.33;;;;;19.10;100.00;99251.75;4923713;28;44850;-87
2023/10/18 11:23:10;;;;;;;;;10.33;8.67;;;;;18.88;100.00;99217.91;4919896;28;45998;-83
2023/10/18 11:25:38;;;;;;;;;12.67;10.67;;;;;18.83;100.00;99215.19;4918182;28;45501;-80
2023/10/18 11:28:20;;;;;;;;;13.67;11.67;;;;;19.01;100.00;99240.50;4971613;28;45713;-87
2023/10/18 11:30:56;;;;;;;;;12.00;10.00;;;;;18.95;100.00;99227.81;4990676;28;46082;-86
2023/10/18 11:33:54;;;;;;;;;9.33;9.00;;;;;18.99;100.00;99224.13;4972649;28;46174;-86
2023/10/18 11:36:51;;;;;;;;;12.67;12.67;;;;;19.05;100.00;99222.91;4964739;28;45707;-80
2023/10/18 11:39:21;;;;;;;;;44.00;35.00;;;;;18.94;100.00;99195.63;4949284;28;45729;-80
2023/10/18 11:41:56;;;;;;;;;21.00;18.67;;;;;19.10;100.00;99218.41;4947016;28;45755;-81
2023/10/18 11:44:40;;;;;;;;;11.67;8.67;;;;;18.97;100.00;99195.84;4948621;28;45724;-81
2023/10/18 11:47:12;;;;;;;;;14.67;10.67;;;;;18.93;100.00;99186.44;4947117;28;45555;-80
2023/10/18 11:50:08;;;;;;;;;7.67;7.33;;;;;18.93;100.00;99186.44;4956335;28;45511;-81
2023/10/18 11:53:09;;;;;;;;;10.67;10.67;;;;;18.66;100.00;99151.03;4955636;28;45559;-89
2023/10/18 11:55:37;;;;;;;;;11.00;8.67;;;;;18.76;100.00;99153.66;4955300;28;45599;-86
2023/10/18 11:58:18;;;;;;;;;9.67;8.33;;;;;18.65;100.00;99141.03;4952171;28;46036;-84
2023/10/18 12:00:47;;;;;;;;;7.33;6.00;;;;;18.58;100.00;99110.91;4958768;28;45563;-88
2023/10/18 12:03:35;;;;;;;;;13.00;10.00;;;;;18.59;100.00;99128.38;4962616;28;46045;-88